createdAt,value
2017-10-06T00:00:50.422Z,967.28
2017-10-06T00:01:59.483Z,967.32
2017-10-06T00:03:08.188Z,967.3
2017-10-06T00:04:17.211Z,967.32
2017-10-06T00:05:26.555Z,967.29
2017-10-06T00:06:35.900Z,967.3
2017-10-06T00:07:44.608Z,967.29
2017-10-06T00:08:53.955Z,967.25
2017-10-06T00:10:02.980Z,967.27
2017-10-06T00:11:12.321Z,967.27
2017-10-06T00:12:21.344Z,967.26
2017-10-06T00:13:30.688Z,967.32
2017-10-06T00:14:39.395Z,967.33
2017-10-06T00:15:49.062Z,967.33
2017-10-06T00:16:58.409Z,967.3
2017-10-06T00:18:08.077Z,967.34
2017-10-06T00:19:17.420Z,967.33
2017-10-06T00:20:26.448Z,967.31
2017-10-06T00:21:35.794Z,967.29
2017-10-06T00:22:44.501Z,967.32
2017-10-06T00:23:53.529Z,967.33
2017-10-06T00:25:02.878Z,967.35
2017-10-06T00:26:11.909Z,967.37
2017-10-06T00:27:20.934Z,967.36
2017-10-06T00:28:29.642Z,967.33
2017-10-06T00:29:38.677Z,967.31
2017-10-06T00:30:47.710Z,967.36
2017-10-06T00:31:57.381Z,967.33
2017-10-06T00:33:06.409Z,967.28
2017-10-06T00:34:15.442Z,967.28
2017-10-06T00:35:24.467Z,967.33
2017-10-06T00:36:34.132Z,967.3
2017-10-06T00:37:43.156Z,967.35
2017-10-06T00:38:52.505Z,967.33
2017-10-06T00:40:01.219Z,967.31
2017-10-06T00:41:10.244Z,967.33
2017-10-06T00:42:19.587Z,967.31
2017-10-06T00:43:28.932Z,967.27
2017-10-06T00:44:38.601Z,967.29
2017-10-06T00:45:47.625Z,967.3
2017-10-06T00:46:56.970Z,967.31
2017-10-06T00:48:05.674Z,967.31
2017-10-06T00:49:14.700Z,967.33
2017-10-06T00:50:23.727Z,967.32
2017-10-06T00:51:33.392Z,967.3
2017-10-06T00:52:42.735Z,967.31
2017-10-06T00:53:51.442Z,967.31
2017-10-06T00:55:00.468Z,967.26
2017-10-06T00:56:09.173Z,967.27
2017-10-06T00:57:17.884Z,967.32
2017-10-06T00:58:27.549Z,967.25
2017-10-06T00:59:37.221Z,967.28
2017-10-06T01:00:46.572Z,967.27
2017-10-06T01:01:55.275Z,967.23
2017-10-06T01:03:03.983Z,967.24
2017-10-06T01:04:12.691Z,967.24
2017-10-06T01:05:22.360Z,967.24
2017-10-06T01:06:31.386Z,967.24
2017-10-06T01:07:40.092Z,967.26
2017-10-06T01:08:49.436Z,967.27
2017-10-06T01:09:58.461Z,967.24
2017-10-06T01:11:07.490Z,967.28
2017-10-06T01:12:16.198Z,967.28
2017-10-06T01:13:25.549Z,967.28
2017-10-06T01:14:34.904Z,967.29
2017-10-06T01:15:44.248Z,967.29
2017-10-06T01:16:53.601Z,967.27
2017-10-06T01:18:02.628Z,967.27
2017-10-06T01:19:12.296Z,967.26
2017-10-06T01:20:21.318Z,967.21
2017-10-06T01:21:30.662Z,967.24
2017-10-06T01:22:39.690Z,967.22
2017-10-06T01:23:48.727Z,967.21
2017-10-06T01:24:58.070Z,967.16
2017-10-06T01:26:07.100Z,967.17
2017-10-06T01:27:16.123Z,967.17
2017-10-06T01:28:24.831Z,967.15
2017-10-06T01:29:33.539Z,967.14
2017-10-06T01:30:42.566Z,967.11
2017-10-06T01:31:51.272Z,967.12
2017-10-06T01:33:00.302Z,967.12
2017-10-06T01:34:09.666Z,967.08
2017-10-06T01:35:18.354Z,967.08
2017-10-06T01:36:27.381Z,967.1
2017-10-06T01:37:36.723Z,967.07
2017-10-06T01:38:46.072Z,967.04
2017-10-06T01:39:55.743Z,967.05
2017-10-06T01:41:05.094Z,967.05
2017-10-06T01:42:14.127Z,967.05
2017-10-06T01:43:23.147Z,967.05
2017-10-06T01:44:32.493Z,967.04
2017-10-06T01:45:41.520Z,967.05
2017-10-06T01:46:50.865Z,967.04
2017-10-06T01:47:59.573Z,967.13
2017-10-06T01:49:08.919Z,967.08
2017-10-06T01:50:18.905Z,967.12
2017-10-06T01:51:27.610Z,967.12
2017-10-06T01:52:36.318Z,967.16
2017-10-06T01:53:45.345Z,967.15
2017-10-06T01:54:54.365Z,967.14
2017-10-06T01:56:03.073Z,967.17
2017-10-06T01:57:12.092Z,967.23
2017-10-06T01:58:21.473Z,967.16
2017-10-06T01:59:30.500Z,967.13
2017-10-06T02:00:39.202Z,967.15
2017-10-06T02:01:48.545Z,967.2
2017-10-06T02:02:57.573Z,967.14
2017-10-06T02:04:06.597Z,967.18
2017-10-06T02:05:15.303Z,967.12
2017-10-06T02:06:24.328Z,967.11
2017-10-06T02:07:33.672Z,967.16
2017-10-06T02:08:42.700Z,967.16
2017-10-06T02:09:51.729Z,967.12
2017-10-06T02:11:00.433Z,967.13
2017-10-06T02:12:09.137Z,967.11
2017-10-06T02:13:17.842Z,967.1
2017-10-06T02:14:26.562Z,967.08
2017-10-06T02:15:35.910Z,967.09
2017-10-06T02:16:45.578Z,967.09
2017-10-06T02:17:54.925Z,967.1
2017-10-06T02:19:03.950Z,967.04
2017-10-06T02:20:13.297Z,967.03
2017-10-06T02:21:22.004Z,967.01
2017-10-06T02:22:30.709Z,966.97
2017-10-06T02:23:40.052Z,966.99
2017-10-06T02:24:49.078Z,967.06
2017-10-06T02:25:58.743Z,967.03
2017-10-06T02:27:07.447Z,967.03
2017-10-06T02:28:16.794Z,967
2017-10-06T02:29:25.509Z,966.99
2017-10-06T02:30:34.534Z,966.97
2017-10-06T02:31:43.567Z,966.96
2017-10-06T02:32:52.927Z,966.95
2017-10-06T02:34:02.273Z,966.94
2017-10-06T02:35:10.982Z,966.94
2017-10-06T02:36:20.658Z,966.96
2017-10-06T02:37:30.003Z,967.01
2017-10-06T02:38:39.673Z,967.03
2017-10-06T02:39:48.700Z,966.99
2017-10-06T02:40:57.721Z,967.01
2017-10-06T02:42:06.748Z,966.98
2017-10-06T02:43:16.096Z,967.02
2017-10-06T02:44:24.801Z,967.04
2017-10-06T02:45:34.148Z,967.06
2017-10-06T02:46:42.853Z,967.03
2017-10-06T02:47:51.877Z,967.06
2017-10-06T02:49:00.900Z,967.04
2017-10-06T02:50:09.607Z,967.02
2017-10-06T02:51:19.279Z,967.03
2017-10-06T02:52:28.306Z,966.98
2017-10-06T02:53:37.975Z,966.96
2017-10-06T02:54:46.999Z,966.95
2017-10-06T02:55:56.354Z,966.93
2017-10-06T02:57:06.026Z,966.9
2017-10-06T02:58:15.055Z,966.96
2017-10-06T02:59:24.724Z,966.92
2017-10-06T03:00:34.065Z,966.9
2017-10-06T03:01:43.091Z,966.95
2017-10-06T03:02:52.114Z,966.94
2017-10-06T03:04:01.783Z,966.92
2017-10-06T03:05:10.808Z,966.91
2017-10-06T03:06:20.154Z,966.93
2017-10-06T03:07:29.184Z,966.99
2017-10-06T03:08:38.212Z,966.96
2017-10-06T03:09:47.242Z,966.96
2017-10-06T03:10:56.265Z,966.94
2017-10-06T03:12:05.290Z,966.92
2017-10-06T03:13:14.316Z,966.9
2017-10-06T03:14:23.017Z,966.92
2017-10-06T03:15:32.043Z,966.95
2017-10-06T03:16:41.712Z,966.88
2017-10-06T03:17:50.737Z,966.93
2017-10-06T03:19:00.090Z,966.94
2017-10-06T03:20:09.433Z,966.92
2017-10-06T03:21:18.456Z,966.96
2017-10-06T03:22:27.478Z,966.96
2017-10-06T03:23:36.186Z,966.91
2017-10-06T03:24:45.212Z,966.94
2017-10-06T03:25:54.556Z,966.93
2017-10-06T03:27:03.260Z,966.97
2017-10-06T03:28:11.966Z,966.97
2017-10-06T03:29:21.318Z,966.97
2017-10-06T03:30:30.344Z,966.96
2017-10-06T03:31:39.373Z,966.97
2017-10-06T03:32:48.409Z,966.94
2017-10-06T03:33:57.114Z,966.93
2017-10-06T03:35:06.781Z,966.96
2017-10-06T03:36:16.127Z,966.95
2017-10-06T03:37:24.833Z,966.99
2017-10-06T03:38:33.854Z,966.95
2017-10-06T03:39:43.200Z,966.96
2017-10-06T03:40:51.904Z,967
2017-10-06T03:42:00.932Z,966.98
2017-10-06T03:43:09.636Z,966.99
2017-10-06T03:44:18.661Z,966.95
2017-10-06T03:45:27.366Z,966.95
2017-10-06T03:46:36.075Z,966.94
2017-10-06T03:47:45.101Z,966.98
2017-10-06T03:48:54.448Z,966.99
2017-10-06T03:50:04.111Z,967
2017-10-06T03:51:13.457Z,966.96
2017-10-06T03:52:22.166Z,967
2017-10-06T03:53:31.193Z,967.04
2017-10-06T03:54:40.228Z,967.03
2017-10-06T03:55:49.261Z,967.03
2017-10-06T03:56:58.286Z,967.09
2017-10-06T03:58:07.646Z,967.1
2017-10-06T03:59:16.671Z,967.05
2017-10-06T04:00:26.022Z,967.06
2017-10-06T04:01:35.372Z,967.05
2017-10-06T04:02:44.718Z,967.03
2017-10-06T04:03:53.748Z,967
2017-10-06T04:05:02.451Z,966.99
2017-10-06T04:06:11.476Z,966.97
2017-10-06T04:07:20.502Z,966.96
2017-10-06T04:08:29.855Z,966.99
2017-10-06T04:09:38.557Z,967.04
2017-10-06T04:10:47.585Z,967.01
2017-10-06T04:11:56.610Z,966.99
2017-10-06T04:13:05.633Z,966.98
2017-10-06T04:14:14.659Z,966.95
2017-10-06T04:15:23.368Z,966.97
2017-10-06T04:16:32.392Z,966.95
2017-10-06T04:17:41.742Z,966.92
2017-10-06T04:18:50.770Z,966.91
2017-10-06T04:20:00.123Z,966.94
2017-10-06T04:21:09.470Z,966.9
2017-10-06T04:22:18.820Z,966.89
2017-10-06T04:23:28.490Z,966.89
2017-10-06T04:24:38.154Z,966.95
2017-10-06T04:25:47.497Z,966.91
2017-10-06T04:26:56.526Z,966.95
2017-10-06T04:28:05.550Z,966.99
2017-10-06T04:29:14.574Z,967
2017-10-06T04:30:24.570Z,967.09
2017-10-06T04:31:34.241Z,967.01
2017-10-06T04:32:43.586Z,966.97
2017-10-06T04:33:52.611Z,966.97
2017-10-06T04:35:02.280Z,966.91
2017-10-06T04:36:11.949Z,966.95
2017-10-06T04:37:21.295Z,966.99
2017-10-06T04:38:30.003Z,966.96
2017-10-06T04:39:39.028Z,966.92
2017-10-06T04:40:48.380Z,966.96
2017-10-06T04:41:57.722Z,966.94
2017-10-06T04:43:07.068Z,966.92
2017-10-06T04:44:16.092Z,966.9
2017-10-06T04:45:25.124Z,966.91
2017-10-06T04:46:34.153Z,966.94
2017-10-06T04:47:43.511Z,966.92
2017-10-06T04:48:52.523Z,966.95
2017-10-06T04:50:01.553Z,966.93
2017-10-06T04:51:10.899Z,966.92
2017-10-06T04:52:19.610Z,966.96
2017-10-06T04:53:28.318Z,966.97
2017-10-06T04:54:37.020Z,966.92
2017-10-06T04:55:45.724Z,966.93
2017-10-06T04:56:54.756Z,966.97
2017-10-06T04:58:03.779Z,966.97
2017-10-06T04:59:12.487Z,966.94
2017-10-06T05:00:21.512Z,966.93
2017-10-06T05:01:30.221Z,966.99
2017-10-06T05:02:39.570Z,966.96
2017-10-06T05:03:48.598Z,966.91
2017-10-06T05:04:57.304Z,966.96
2017-10-06T05:06:06.654Z,966.93
2017-10-06T05:07:15.358Z,966.93
2017-10-06T05:08:24.702Z,966.98
2017-10-06T05:09:33.407Z,966.97
2017-10-06T05:10:42.116Z,967.01
2017-10-06T05:11:51.457Z,967.01
2017-10-06T05:13:00.489Z,967.03
2017-10-06T05:14:09.194Z,967.02
2017-10-06T05:15:18.535Z,967.03
2017-10-06T05:16:27.889Z,966.99
2017-10-06T05:17:37.556Z,967.01
2017-10-06T05:18:46.593Z,967.05
2017-10-06T05:19:55.619Z,967.02
2017-10-06T05:21:04.643Z,967.07
2017-10-06T05:22:13.993Z,967.04
2017-10-06T05:23:22.699Z,967.03
2017-10-06T05:24:31.404Z,967.04
2017-10-06T05:25:40.110Z,967.07
2017-10-06T05:26:49.455Z,967.04
2017-10-06T05:27:58.161Z,967.07
2017-10-06T05:29:06.864Z,967.1
2017-10-06T05:30:16.530Z,967.05
2017-10-06T05:31:26.517Z,967.06
2017-10-06T05:32:35.541Z,967.03
2017-10-06T05:33:44.565Z,967.08
2017-10-06T05:34:53.908Z,967.1
2017-10-06T05:36:02.937Z,967.13
2017-10-06T05:37:12.282Z,967.1
2017-10-06T05:38:21.312Z,967.09
2017-10-06T05:39:30.982Z,967.12
2017-10-06T05:40:40.646Z,967.09
2017-10-06T05:41:50.005Z,967.1
2017-10-06T05:42:58.707Z,967.11
2017-10-06T05:44:07.734Z,967.12
2017-10-06T05:45:16.441Z,967.1
2017-10-06T05:46:25.151Z,967.09
2017-10-06T05:47:34.498Z,967.05
2017-10-06T05:48:43.844Z,967.07
2017-10-06T05:49:52.868Z,967.1
2017-10-06T05:51:02.218Z,967.09
2017-10-06T05:52:11.887Z,967.06
2017-10-06T05:53:20.913Z,967.12
2017-10-06T05:54:29.939Z,967.1
2017-10-06T05:55:38.965Z,967.13
2017-10-06T05:56:47.991Z,967.12
2017-10-06T05:57:57.336Z,967.12
2017-10-06T05:59:06.679Z,967.09
2017-10-06T06:00:16.345Z,967.07
2017-10-06T06:01:26.339Z,967.1
2017-10-06T06:02:35.685Z,967.11
2017-10-06T06:03:44.709Z,967.1
2017-10-06T06:04:54.370Z,967.12
2017-10-06T06:06:04.049Z,967.05
2017-10-06T06:07:13.070Z,967.02
2017-10-06T06:08:22.095Z,967.09
2017-10-06T06:09:31.118Z,967.12
2017-10-06T06:10:40.786Z,967.14
2017-10-06T06:11:50.136Z,967.12
2017-10-06T06:12:59.163Z,967.11
2017-10-06T06:14:08.190Z,967.16
2017-10-06T06:15:17.852Z,967.16
2017-10-06T06:16:26.561Z,967.16
2017-10-06T06:17:35.587Z,967.16
2017-10-06T06:18:44.295Z,967.18
2017-10-06T06:19:52.996Z,967.26
2017-10-06T06:21:02.025Z,967.22
2017-10-06T06:22:10.732Z,967.22
2017-10-06T06:23:19.766Z,967.17
2017-10-06T06:24:29.111Z,967.23
2017-10-06T06:25:38.139Z,967.24
2017-10-06T06:26:46.843Z,967.23
2017-10-06T06:27:55.870Z,967.24
2017-10-06T06:29:04.898Z,967.21
2017-10-06T06:30:13.928Z,967.26
2017-10-06T06:31:23.275Z,967.28
2017-10-06T06:32:32.298Z,967.35
2017-10-06T06:33:41.007Z,967.33
2017-10-06T06:34:50.031Z,967.36
2017-10-06T06:35:59.063Z,967.34
2017-10-06T06:37:07.770Z,967.3
2017-10-06T06:38:16.477Z,967.35
2017-10-06T06:39:25.822Z,967.36
2017-10-06T06:40:35.171Z,967.36
2017-10-06T06:41:44.205Z,967.38
2017-10-06T06:42:53.228Z,967.34
2017-10-06T06:44:01.937Z,967.36
2017-10-06T06:45:10.967Z,967.37
2017-10-06T06:46:19.990Z,967.42
2017-10-06T06:47:29.016Z,967.44
2017-10-06T06:48:38.368Z,967.44
2017-10-06T06:49:47.392Z,967.45
2017-10-06T06:50:56.417Z,967.44
2017-10-06T06:52:05.766Z,967.46
2017-10-06T06:53:14.476Z,967.38
2017-10-06T06:54:23.824Z,967.43
2017-10-06T06:55:32.854Z,967.46
2017-10-06T06:56:42.201Z,967.46
2017-10-06T06:57:51.234Z,967.53
2017-10-06T06:59:00.581Z,967.57
2017-10-06T07:00:09.607Z,967.52
2017-10-06T07:01:18.634Z,967.54
2017-10-06T07:02:28.002Z,967.5
2017-10-06T07:03:37.030Z,967.54
2017-10-06T07:04:46.059Z,967.6
2017-10-06T07:05:55.091Z,967.51
2017-10-06T07:07:04.113Z,967.5
2017-10-06T07:08:13.777Z,967.59
2017-10-06T07:09:23.132Z,967.55
2017-10-06T07:10:32.159Z,967.53
2017-10-06T07:11:41.189Z,967.54
2017-10-06T07:12:50.214Z,967.59
2017-10-06T07:13:58.924Z,967.59
2017-10-06T07:15:07.951Z,967.59
2017-10-06T07:16:16.979Z,967.58
2017-10-06T07:17:26.324Z,967.62
2017-10-06T07:18:35.350Z,967.6
2017-10-06T07:19:44.375Z,967.6
2017-10-06T07:20:53.719Z,967.63
2017-10-06T07:22:02.426Z,967.63
2017-10-06T07:23:11.452Z,967.63
2017-10-06T07:24:20.481Z,967.65
2017-10-06T07:25:29.188Z,967.66
2017-10-06T07:26:38.215Z,967.67
2017-10-06T07:27:47.242Z,967.7
2017-10-06T07:28:55.950Z,967.67
2017-10-06T07:30:04.974Z,967.66
2017-10-06T07:31:14.324Z,967.72
2017-10-06T07:32:23.672Z,967.68
2017-10-06T07:33:33.018Z,967.72
2017-10-06T07:34:42.046Z,967.78
2017-10-06T07:35:51.397Z,967.73
2017-10-06T07:37:00.103Z,967.7
2017-10-06T07:38:08.813Z,967.7
2017-10-06T07:39:17.840Z,967.81
2017-10-06T07:40:27.189Z,967.78
2017-10-06T07:41:36.539Z,967.76
2017-10-06T07:42:45.570Z,967.8
2017-10-06T07:43:55.239Z,967.76
2017-10-06T07:45:04.273Z,967.77
2017-10-06T07:46:13.301Z,967.77
2017-10-06T07:47:22.645Z,967.76
2017-10-06T07:48:31.995Z,967.82
2017-10-06T07:49:40.703Z,967.83
2017-10-06T07:50:50.369Z,967.9
2017-10-06T07:52:00.040Z,967.89
2017-10-06T07:53:08.748Z,967.87
2017-10-06T07:54:17.771Z,967.86
2017-10-06T07:55:26.477Z,967.82
2017-10-06T07:56:35.502Z,967.86
2017-10-06T07:57:44.852Z,967.91
2017-10-06T07:58:53.877Z,967.88
2017-10-06T08:00:03.548Z,967.87
2017-10-06T08:01:12.903Z,967.85
2017-10-06T08:02:21.929Z,967.95
2017-10-06T08:03:30.955Z,967.89
2017-10-06T08:04:39.980Z,967.89
2017-10-06T08:05:49.010Z,967.9
2017-10-06T08:06:58.036Z,967.9
2017-10-06T08:08:07.073Z,967.89
2017-10-06T08:09:16.417Z,967.85
2017-10-06T08:10:25.441Z,967.85
2017-10-06T08:11:34.784Z,967.83
2017-10-06T08:12:43.489Z,967.85
2017-10-06T08:13:52.837Z,967.85
2017-10-06T08:15:01.868Z,967.88
2017-10-06T08:16:11.539Z,967.87
2017-10-06T08:17:20.884Z,967.91
2017-10-06T08:18:29.910Z,967.92
2017-10-06T08:19:38.936Z,967.9
2017-10-06T08:20:47.959Z,967.88
2017-10-06T08:21:56.993Z,967.96
2017-10-06T08:23:05.697Z,967.92
2017-10-06T08:24:15.044Z,967.95
2017-10-06T08:25:24.074Z,967.97
2017-10-06T08:26:33.751Z,967.96
2017-10-06T08:27:42.780Z,968.03
2017-10-06T08:28:52.443Z,967.89
2017-10-06T08:30:01.792Z,968
2017-10-06T08:31:10.819Z,968.06
2017-10-06T08:32:19.845Z,968.07
2017-10-06T08:33:28.869Z,968.07
2017-10-06T08:34:37.891Z,968.03
2017-10-06T08:35:46.922Z,968.08
2017-10-06T08:36:55.945Z,968.07
2017-10-06T08:38:04.970Z,968.12
2017-10-06T08:39:13.998Z,968.12
2017-10-06T08:40:23.026Z,968.15
2017-10-06T08:41:32.697Z,968.15
2017-10-06T08:42:41.722Z,968.14
2017-10-06T08:43:51.070Z,968.16
2017-10-06T08:44:59.775Z,968.19
2017-10-06T08:46:08.808Z,968.19
2017-10-06T08:47:17.835Z,968.11
2017-10-06T08:48:26.862Z,968.26
2017-10-06T08:49:35.888Z,968.22
2017-10-06T08:50:44.911Z,968.16
2017-10-06T08:51:54.579Z,968.27
2017-10-06T08:53:03.289Z,968.25
2017-10-06T08:54:12.313Z,968.28
2017-10-06T08:55:21.341Z,968.29
2017-10-06T08:56:30.370Z,968.33
2017-10-06T08:57:39.397Z,968.29
2017-10-06T08:58:49.069Z,968.37
2017-10-06T08:59:58.748Z,968.29
2017-10-06T09:01:07.777Z,968.33
2017-10-06T09:02:17.768Z,968.35
2017-10-06T09:03:27.466Z,968.45
2017-10-06T09:04:36.818Z,968.39
2017-10-06T09:05:45.523Z,968.41
2017-10-06T09:06:54.868Z,968.36
2017-10-06T09:08:03.575Z,968.38
2017-10-06T09:09:12.599Z,968.38
2017-10-06T09:10:21.947Z,968.35
2017-10-06T09:11:30.654Z,968.38
2017-10-06T09:12:39.359Z,968.39
2017-10-06T09:13:48.385Z,968.4
2017-10-06T09:14:57.733Z,968.39
2017-10-06T09:16:07.081Z,968.32
2017-10-06T09:17:16.110Z,968.38
2017-10-06T09:18:25.457Z,968.41
2017-10-06T09:19:34.480Z,968.4
2017-10-06T09:20:43.505Z,968.41
2017-10-06T09:21:52.533Z,968.42
2017-10-06T09:23:02.198Z,968.39
2017-10-06T09:24:11.222Z,968.41
2017-10-06T09:25:20.247Z,968.38
2017-10-06T09:26:28.951Z,968.38
2017-10-06T09:27:38.298Z,968.42
2017-10-06T09:28:47.645Z,968.43
2017-10-06T09:29:56.669Z,968.49
2017-10-06T09:31:06.022Z,968.52
2017-10-06T09:32:15.050Z,968.48
2017-10-06T09:33:23.758Z,968.55
2017-10-06T09:34:33.107Z,968.54
2017-10-06T09:35:42.777Z,968.53
2017-10-06T09:36:52.127Z,968.55
2017-10-06T09:38:01.155Z,968.57
2017-10-06T09:39:10.504Z,968.59
2017-10-06T09:40:19.210Z,968.61
2017-10-06T09:41:28.560Z,968.62
2017-10-06T09:42:37.907Z,968.68
2017-10-06T09:43:46.936Z,968.71
2017-10-06T09:44:56.017Z,968.74
2017-10-06T09:46:05.363Z,968.78
2017-10-06T09:47:14.720Z,968.8
2017-10-06T09:48:23.748Z,968.78
2017-10-06T09:49:32.773Z,968.78
2017-10-06T09:50:41.798Z,968.79
2017-10-06T09:51:51.145Z,968.8
2017-10-06T09:53:00.494Z,968.8
2017-10-06T09:54:09.198Z,968.83
2017-10-06T09:55:18.225Z,968.83
2017-10-06T09:56:26.930Z,968.9
2017-10-06T09:57:36.602Z,968.89
2017-10-06T09:58:45.954Z,968.9
2017-10-06T09:59:54.987Z,968.9
2017-10-06T10:01:03.691Z,968.89
2017-10-06T10:02:12.718Z,968.91
2017-10-06T10:03:21.746Z,968.9
2017-10-06T10:04:30.773Z,968.85
2017-10-06T10:05:40.117Z,968.9
2017-10-06T10:06:49.141Z,968.96
2017-10-06T10:07:58.492Z,968.95
2017-10-06T10:09:07.518Z,968.97
2017-10-06T10:10:16.225Z,969.04
2017-10-06T10:11:24.928Z,968.95
2017-10-06T10:12:34.278Z,969.07
2017-10-06T10:13:43.307Z,969.08
2017-10-06T10:14:52.331Z,969.06
2017-10-06T10:16:01.355Z,969.13
2017-10-06T10:17:10.381Z,969.14
2017-10-06T10:18:19.401Z,969.18
2017-10-06T10:19:28.432Z,969.15
2017-10-06T10:20:37.461Z,969.24
2017-10-06T10:21:46.488Z,969.26
2017-10-06T10:22:55.197Z,969.25
2017-10-06T10:24:04.223Z,969.34
2017-10-06T10:25:13.251Z,969.39
2017-10-06T10:26:22.281Z,969.36
2017-10-06T10:27:30.988Z,969.43
2017-10-06T10:28:39.697Z,969.4
2017-10-06T10:29:49.365Z,969.42
2017-10-06T10:30:58.392Z,969.49
2017-10-06T10:32:07.740Z,969.5
2017-10-06T10:33:17.410Z,969.56
2017-10-06T10:34:26.118Z,969.53
2017-10-06T10:35:34.824Z,969.5
2017-10-06T10:36:43.527Z,969.45
2017-10-06T10:37:52.235Z,969.46
2017-10-06T10:39:00.939Z,969.52
2017-10-06T10:40:09.963Z,969.46
2017-10-06T10:41:18.667Z,969.5
2017-10-06T10:42:27.695Z,969.48
2017-10-06T10:43:36.727Z,969.53
2017-10-06T10:44:45.762Z,969.54
2017-10-06T10:45:55.108Z,969.56
2017-10-06T10:47:04.135Z,969.62
2017-10-06T10:48:12.839Z,969.65
2017-10-06T10:49:21.547Z,969.66
2017-10-06T10:50:30.571Z,969.73
2017-10-06T10:51:39.918Z,969.7
2017-10-06T10:52:49.589Z,969.68
2017-10-06T10:53:58.297Z,969.67
2017-10-06T10:55:07.323Z,969.7
2017-10-06T10:56:16.675Z,969.69
2017-10-06T10:57:25.701Z,969.69
2017-10-06T10:58:34.410Z,969.68
2017-10-06T10:59:43.115Z,969.68
2017-10-06T11:00:52.468Z,969.78
2017-10-06T11:02:01.500Z,969.79
2017-10-06T11:03:10.207Z,969.79
2017-10-06T11:04:19.235Z,969.79
2017-10-06T11:05:27.937Z,969.85
2017-10-06T11:06:37.284Z,969.76
2017-10-06T11:07:45.990Z,969.8
2017-10-06T11:08:55.016Z,969.8
2017-10-06T11:10:04.367Z,969.82
2017-10-06T11:11:13.071Z,969.76
2017-10-06T11:12:22.436Z,969.8
2017-10-06T11:13:31.139Z,969.86
2017-10-06T11:14:40.165Z,969.79
2017-10-06T11:15:49.186Z,969.77
2017-10-06T11:16:58.208Z,969.8
2017-10-06T11:18:07.233Z,969.79
2017-10-06T11:19:16.262Z,969.75
2017-10-06T11:20:25.288Z,969.74
2017-10-06T11:21:34.315Z,969.75
2017-10-06T11:22:43.340Z,969.77
2017-10-06T11:23:52.687Z,969.83
2017-10-06T11:25:02.362Z,969.83
2017-10-06T11:26:11.068Z,970
2017-10-06T11:27:20.735Z,969.78
2017-10-06T11:28:29.766Z,970.04
2017-10-06T11:29:38.473Z,970.06
2017-10-06T11:30:48.143Z,970.04
2017-10-06T11:31:57.175Z,969.81
2017-10-06T11:33:06.520Z,969.8
2017-10-06T11:34:15.553Z,969.82
2017-10-06T11:35:25.224Z,969.81
2017-10-06T11:36:33.930Z,969.77
2017-10-06T11:37:42.953Z,969.75
2017-10-06T11:38:52.629Z,969.76
2017-10-06T11:40:01.655Z,969.75
2017-10-06T11:41:10.684Z,969.84
2017-10-06T11:42:19.708Z,969.87
2017-10-06T11:43:28.736Z,969.82
2017-10-06T11:44:37.443Z,969.91
2017-10-06T11:45:46.789Z,969.87
2017-10-06T11:46:56.137Z,969.85
2017-10-06T11:48:04.846Z,969.94
2017-10-06T11:49:14.199Z,969.9
2017-10-06T11:50:23.221Z,969.89
2017-10-06T11:51:32.247Z,969.89
2017-10-06T11:52:41.274Z,969.9
2017-10-06T11:53:49.983Z,969.91
2017-10-06T11:54:59.333Z,969.91
2017-10-06T11:56:08.363Z,969.91
2017-10-06T11:57:17.068Z,969.86
2017-10-06T11:58:25.775Z,969.85
2017-10-06T11:59:34.806Z,969.88
2017-10-06T12:00:44.490Z,969.87
2017-10-06T12:01:53.516Z,969.86
2017-10-06T12:03:02.223Z,969.93
2017-10-06T12:04:11.569Z,969.93
2017-10-06T12:05:21.239Z,969.86
2017-10-06T12:06:29.944Z,969.89
2017-10-06T12:07:38.969Z,969.86
2017-10-06T12:08:48.001Z,969.84
2017-10-06T12:09:57.346Z,969.88
2017-10-06T12:11:06.055Z,969.88
2017-10-06T12:12:15.080Z,969.84
2017-10-06T12:13:23.789Z,969.82
2017-10-06T12:14:32.814Z,969.89
2017-10-06T12:15:41.523Z,969.88
2017-10-06T12:16:50.237Z,969.85
2017-10-06T12:17:59.917Z,969.89
2017-10-06T12:19:08.623Z,969.9
2017-10-06T12:20:17.332Z,969.91
2017-10-06T12:21:26.672Z,969.93
2017-10-06T12:22:35.378Z,969.99
2017-10-06T12:23:44.410Z,969.96
2017-10-06T12:24:53.118Z,970.01
2017-10-06T12:26:02.144Z,969.97
2017-10-06T12:27:10.855Z,969.92
2017-10-06T12:28:19.564Z,970
2017-10-06T12:29:28.912Z,970.03
2017-10-06T12:30:37.945Z,970
2017-10-06T12:31:46.971Z,969.97
2017-10-06T12:32:56.001Z,969.99
2017-10-06T12:34:05.346Z,969.96
2017-10-06T12:35:14.697Z,969.96
2017-10-06T12:36:24.054Z,970
2017-10-06T12:37:33.403Z,969.94
2017-10-06T12:38:42.115Z,969.93
2017-10-06T12:39:51.462Z,969.95
2017-10-06T12:41:00.489Z,969.99
2017-10-06T12:42:09.845Z,970.03
2017-10-06T12:43:19.196Z,969.96
2017-10-06T12:44:28.543Z,970.01
2017-10-06T12:45:37.890Z,970.01
2017-10-06T12:46:46.918Z,970
2017-10-06T12:47:56.268Z,970
2017-10-06T12:49:04.974Z,970.02
2017-10-06T12:50:13.680Z,970
2017-10-06T12:51:23.026Z,969.99
2017-10-06T12:52:31.735Z,970.04
2017-10-06T12:53:40.440Z,969.99
2017-10-06T12:54:49.791Z,970.05
2017-10-06T12:55:58.823Z,970.05
2017-10-06T12:57:08.500Z,969.99
2017-10-06T12:58:17.529Z,970.05
2017-10-06T12:59:26.558Z,970.05
2017-10-06T13:00:35.904Z,970.06
2017-10-06T13:01:45.253Z,970.1
2017-10-06T13:02:54.280Z,970.1
2017-10-06T13:04:02.988Z,970.17
2017-10-06T13:05:11.691Z,970.13
2017-10-06T13:06:20.400Z,970.16
2017-10-06T13:07:29.104Z,970.16
2017-10-06T13:08:38.773Z,970.16
2017-10-06T13:09:48.118Z,970.15
2017-10-06T13:10:57.144Z,970.13
2017-10-06T13:12:06.170Z,970.12
2017-10-06T13:13:15.196Z,970.12
2017-10-06T13:14:24.865Z,970.08
2017-10-06T13:15:33.574Z,970.09
2017-10-06T13:16:42.599Z,970.09
2017-10-06T13:17:51.304Z,970.03
2017-10-06T13:19:00.650Z,970.05
2017-10-06T13:20:09.355Z,970.08
2017-10-06T13:21:18.382Z,970.18
2017-10-06T13:22:27.411Z,970.46
2017-10-06T13:23:36.759Z,970.3
2017-10-06T13:24:46.112Z,970.27
2017-10-06T13:25:54.816Z,970.37
2017-10-06T13:27:03.845Z,970.3
2017-10-06T13:28:12.874Z,970.39
2017-10-06T13:29:21.581Z,970.47
2017-10-06T13:30:30.934Z,970.4
2017-10-06T13:31:39.961Z,970.39
2017-10-06T13:32:49.946Z,970.46
2017-10-06T13:33:58.981Z,970.35
2017-10-06T13:35:08.009Z,970.37
2017-10-06T13:36:16.720Z,970.33
2017-10-06T13:37:26.068Z,970.36
2017-10-06T13:38:35.415Z,970.36
2017-10-06T13:39:44.443Z,970.34
2017-10-06T13:40:54.111Z,970.35
2017-10-06T13:42:02.818Z,970.35
2017-10-06T13:43:11.843Z,970.38
2017-10-06T13:44:20.871Z,970.32
2017-10-06T13:45:30.225Z,970.31
2017-10-06T13:46:39.569Z,970.4
2017-10-06T13:47:48.279Z,970.32
2017-10-06T13:48:57.951Z,970.37
2017-10-06T13:50:07.300Z,970.35
2017-10-06T13:51:16.330Z,970.34
2017-10-06T13:52:25.355Z,970.43
2017-10-06T13:53:34.380Z,970.38
2017-10-06T13:54:43.732Z,970.36
2017-10-06T13:55:52.761Z,970.41
2017-10-06T13:57:01.793Z,970.44
2017-10-06T13:58:10.500Z,970.46
2017-10-06T13:59:19.533Z,970.44
2017-10-06T14:00:29.197Z,970.41
2017-10-06T14:01:38.541Z,970.37
2017-10-06T14:02:47.890Z,970.43
2017-10-06T14:03:57.555Z,970.43
2017-10-06T14:05:07.547Z,970.44
2017-10-06T14:06:16.575Z,970.38
2017-10-06T14:07:25.602Z,970.36
2017-10-06T14:08:34.628Z,970.43
2017-10-06T14:09:43.329Z,970.44
2017-10-06T14:10:53.003Z,970.35
2017-10-06T14:12:01.708Z,970.4
2017-10-06T14:13:11.053Z,970.43
2017-10-06T14:14:20.078Z,970.41
2017-10-06T14:15:29.103Z,970.48
2017-10-06T14:16:38.131Z,970.47
2017-10-06T14:17:47.482Z,970.49
2017-10-06T14:18:56.831Z,970.53
2017-10-06T14:20:05.862Z,970.56
2017-10-06T14:21:15.541Z,970.57
2017-10-06T14:22:24.893Z,970.55
2017-10-06T14:23:33.925Z,970.6
2017-10-06T14:24:42.952Z,970.57
2017-10-06T14:25:51.981Z,970.59
2017-10-06T14:27:01.647Z,970.6